Time,TemperatureF,DewpointF,PressureIn,WindDirection,WindDirectionDegrees,WindSpeedMPH,WindSpeedGustMPH,Humidity,HourlyPrecipIn,Conditions,Clouds,dailyrainin,SoftwareType,DateUTC
2013-03-09 00:01:00,30.6,24.6,30.34,SSE,157,5.0,5.0,78,0.00,,,0.00,Wunderground v.1.15,2013-03-09 06:01:00,
2013-03-09 00:06:00,30.7,24.3,30.34,SE,145,5.0,5.0,77,0.00,,,0.00,Wunderground v.1.15,2013-03-09 06:06:00,
2013-03-09 00:12:00,30.9,24.5,30.34,SE,139,9.0,9.0,77,0.00,,,0.00,Wunderground v.1.15,2013-03-09 06:12:00,
2013-03-09 00:17:00,31.0,24.6,30.34,SE,146,3.0,9.0,77,0.00,,,0.00,Wunderground v.1.15,2013-03-09 06:17:00,
2013-03-09 00:22:00,31.1,24.7,30.33,SE,140,5.0,5.0,77,0.00,,,0.00,Wunderground v.1.15,2013-03-09 06:22:00,
2013-03-09 00:28:00,31.1,24.7,30.33,SE,137,6.0,6.0,77,0.00,,,0.00,Wunderground v.1.15,2013-03-09 06:28:00,
2013-03-09 00:33:00,31.1,24.7,30.33,SE,144,3.0,5.0,77,0.00,,,0.00,Wunderground v.1.15,2013-03-09 06:33:00,
2013-03-09 00:38:00,31.1,24.7,30.33,SE,133,3.0,7.0,77,0.00,,,0.00,Wunderground v.1.15,2013-03-09 06:38:00,
2013-03-09 00:43:00,31.9,25.5,30.33,SSE,158,6.0,7.0,77,0.00,,,0.00,Wunderground v.1.15,2013-03-09 06:43:00,
2013-03-09 00:48:00,31.8,25.7,30.33,SSE,155,5.0,7.0,78,0.00,,,0.00,Wunderground v.1.15,2013-03-09 06:48:00,
2013-03-09 00:54:00,31.5,25.4,30.33,SSE,147,5.0,6.0,78,0.00,,,0.00,Wunderground v.1.15,2013-03-09 06:54:00,
2013-03-09 00:59:00,31.2,25.4,30.33,SSE,148,4.0,6.0,79,0.00,,,0.00,Wunderground v.1.15,2013-03-09 06:59:00,
2013-03-09 01:04:00,30.9,25.2,30.33,SE,142,3.0,5.0,79,0.00,,,0.00,Wunderground v.1.15,2013-03-09 07:04:00,
2013-03-09 01:09:00,30.7,25.3,30.33,SSE,155,2.0,5.0,80,0.00,,,0.00,Wunderground v.1.15,2013-03-09 07:09:00,
2013-03-09 01:14:00,30.6,25.2,30.33,SSE,150,3.0,3.0,80,0.00,,,0.00,Wunderground v.1.15,2013-03-09 07:14:00,
2013-03-09 01:20:00,30.5,25.4,30.33,SSE,155,1.0,2.0,81,0.00,,,0.00,Wunderground v.1.15,2013-03-09 07:20:00,
2013-03-09 01:25:00,30.5,25.4,30.33,SSE,151,2.0,3.0,81,0.00,,,0.00,Wunderground v.1.15,2013-03-09 07:25:00,
2013-03-09 01:30:00,30.5,25.4,30.32,SSE,160,1.0,2.0,81,0.00,,,0.00,Wunderground v.1.15,2013-03-09 07:30:00,
2013-03-09 01:35:00,30.6,25.5,30.32,South,178,3.0,6.0,81,0.00,,,0.00,Wunderground v.1.15,2013-03-09 07:35:00,
2013-03-09 01:40:00,30.9,25.8,30.32,South,191,5.0,5.0,81,0.00,,,0.00,Wunderground v.1.15,2013-03-09 07:40:00,
2013-03-09 01:47:00,31.3,25.8,30.32,SW,219,2.0,6.0,80,0.00,,,0.00,Wunderground v.1.15,2013-03-09 07:47:00,
2013-03-09 01:53:00,31.4,25.6,30.32,SSE,152,4.0,5.0,79,0.00,,,0.00,Wunderground v.1.15,2013-03-09 07:53:00,
2013-03-09 01:58:00,31.5,25.7,30.32,South,169,5.0,5.0,79,0.00,,,0.00,Wunderground v.1.15,2013-03-09 07:58:00,
2013-03-09 02:03:00,31.5,25.7,30.31,SSE,161,5.0,9.0,79,0.00,,,0.00,Wunderground v.1.15,2013-03-09 08:03:00,
2013-03-09 02:08:00,31.5,26.0,30.30,SSE,153,7.0,11.0,80,0.00,,,0.00,Wunderground v.1.15,2013-03-09 08:08:00,
2013-03-09 02:13:00,31.4,25.9,30.29,SSE,153,7.0,12.0,80,0.00,,,0.00,Wunderground v.1.15,2013-03-09 08:13:00,
2013-03-09 02:18:00,31.1,25.7,30.28,SSE,163,10.0,12.0,80,0.00,,,0.00,Wunderground v.1.15,2013-03-09 08:18:00,
2013-03-09 02:24:00,31.0,25.9,30.28,SSE,163,9.0,13.0,81,0.00,,,0.00,Wunderground v.1.15,2013-03-09 08:24:00,
2013-03-09 02:29:00,31.1,26.0,30.28,SSE,162,9.0,14.0,81,0.00,,,0.00,Wunderground v.1.15,2013-03-09 08:29:00,
2013-03-09 02:34:00,31.2,26.0,30.28,South,186,10.0,14.0,81,0.00,,,0.00,Wunderground v.1.15,2013-03-09 08:34:00,
2013-03-09 02:39:00,31.5,26.3,30.28,South,182,9.0,14.0,81,0.00,,,0.00,Wunderground v.1.15,2013-03-09 08:39:00,
2013-03-09 02:44:00,31.7,26.2,30.28,SSE,155,10.0,14.0,80,0.00,,,0.00,Wunderground v.1.15,2013-03-09 08:44:00,
2013-03-09 02:49:00,31.7,26.2,30.28,South,186,12.0,14.0,80,0.00,,,0.00,Wunderground v.1.15,2013-03-09 08:49:00,
2013-03-09 02:54:00,31.7,26.2,30.28,South,171,5.0,12.0,80,0.00,,,0.00,Wunderground v.1.15,2013-03-09 08:54:00,
2013-03-09 02:59:00,31.5,26.0,30.28,South,173,6.0,12.0,80,0.00,,,0.00,Wunderground v.1.15,2013-03-09 08:59:00,
2013-03-09 03:05:00,31.4,25.9,30.27,South,171,5.0,10.0,80,0.00,,,0.00,Wunderground v.1.15,2013-03-09 09:05:00,
2013-03-09 03:10:00,31.4,26.2,30.28,SW,222,4.0,6.0,81,0.00,,,0.00,Wunderground v.1.15,2013-03-09 09:10:00,
2013-03-09 03:15:00,31.4,26.2,30.28,South,184,4.0,9.0,81,0.00,,,0.00,Wunderground v.1.15,2013-03-09 09:15:00,
2013-03-09 03:20:00,31.3,26.1,30.27,SSE,158,6.0,6.0,81,0.00,,,0.00,Wunderground v.1.15,2013-03-09 09:20:00,
2013-03-09 03:25:00,31.2,26.0,30.27,SSE,161,5.0,9.0,81,0.00,,,0.00,Wunderground v.1.15,2013-03-09 09:25:00,
2013-03-09 03:30:00,31.2,26.0,30.26,SSE,153,5.0,6.0,81,0.00,,,0.00,Wunderground v.1.15,2013-03-09 09:30:00,
2013-03-09 03:36:00,31.1,26.2,30.25,SE,139,5.0,10.0,82,0.00,,,0.00,Wunderground v.1.15,2013-03-09 09:36:00,
2013-03-09 03:41:00,31.0,26.1,30.25,South,172,5.0,8.0,82,0.00,,,0.00,Wunderground v.1.15,2013-03-09 09:41:00,
2013-03-09 03:46:00,30.9,26.1,30.25,SSW,200,6.0,8.0,82,0.00,,,0.00,Wunderground v.1.15,2013-03-09 09:46:00,
2013-03-09 03:51:00,30.9,26.1,30.26,South,177,6.0,9.0,82,0.00,,,0.00,Wunderground v.1.15,2013-03-09 09:51:00,
2013-03-09 03:56:00,31.2,26.3,30.25,SSW,198,7.0,12.0,82,0.00,,,0.00,Wunderground v.1.15,2013-03-09 09:56:00,
2013-03-09 04:02:00,31.6,26.4,30.25,South,190,7.0,9.0,81,0.00,,,0.00,Wunderground v.1.15,2013-03-09 10:02:00,
2013-03-09 04:07:00,31.7,26.5,30.25,South,191,6.0,13.0,81,0.00,,,0.00,Wunderground v.1.15,2013-03-09 10:07:00,
2013-03-09 04:12:00,31.7,26.5,30.25,SSE,165,6.0,10.0,81,0.00,,,0.00,Wunderground v.1.15,2013-03-09 10:12:00,
2013-03-09 04:17:00,31.7,26.5,30.25,South,183,4.0,12.0,81,0.00,,,0.00,Wunderground v.1.15,2013-03-09 10:17:00,
2013-03-09 04:22:00,31.6,26.4,30.25,South,180,5.0,7.0,81,0.00,,,0.00,Wunderground v.1.15,2013-03-09 10:22:00,
2013-03-09 04:27:00,31.5,26.3,30.26,SSW,195,5.0,7.0,81,0.00,,,0.00,Wunderground v.1.15,2013-03-09 10:27:00,
2013-03-09 04:33:00,31.6,26.4,30.26,South,175,8.0,8.0,81,0.00,,,0.00,Wunderground v.1.15,2013-03-09 10:33:00,
2013-03-09 04:39:00,31.7,26.5,30.26,SSW,198,9.0,10.0,81,0.00,,,0.00,Wunderground v.1.15,2013-03-09 10:39:00,
2013-03-09 04:44:00,31.8,26.6,30.26,SSW,194,6.0,14.0,81,0.00,,,0.00,Wunderground v.1.15,2013-03-09 10:44:00,
2013-03-09 04:49:00,31.9,26.4,30.26,South,178,5.0,14.0,80,0.00,,,0.00,Wunderground v.1.15,2013-03-09 10:49:00,
2013-03-09 04:54:00,32.1,26.6,30.25,SSE,159,9.0,11.0,80,0.00,,,0.00,Wunderground v.1.15,2013-03-09 10:54:00,
2013-03-09 04:59:00,32.2,26.7,30.25,South,183,11.0,14.0,80,0.00,,,0.00,Wunderground v.1.15,2013-03-09 10:59:00,
2013-03-09 05:04:00,32.5,27.0,30.25,SSE,160,12.0,15.0,80,0.00,,,0.00,Wunderground v.1.15,2013-03-09 11:04:00,
2013-03-09 05:09:00,32.5,27.0,30.24,South,178,10.0,15.0,80,0.00,,,0.00,Wunderground v.1.15,2013-03-09 11:09:00,
2013-03-09 05:14:00,32.5,27.0,30.24,South,173,6.0,13.0,80,0.00,,,0.00,Wunderground v.1.15,2013-03-09 11:14:00,
2013-03-09 05:20:00,32.6,27.1,30.24,South,175,12.0,12.0,80,0.00,,,0.00,Wunderground v.1.15,2013-03-09 11:20:00,
2013-03-09 05:25:00,32.8,27.0,30.24,South,190,8.0,13.0,79,0.00,,,0.00,Wunderground v.1.15,2013-03-09 11:25:00,
2013-03-09 05:30:00,32.8,27.0,30.24,South,184,7.0,9.0,79,0.00,,,0.00,Wunderground v.1.15,2013-03-09 11:30:00,
2013-03-09 05:35:00,32.8,27.0,30.24,South,187,4.0,11.0,79,0.00,,,0.00,Wunderground v.1.15,2013-03-09 11:35:00,
2013-03-09 05:40:00,32.8,27.0,30.24,South,174,7.0,9.0,79,0.00,,,0.00,Wunderground v.1.15,2013-03-09 11:40:00,
2013-03-09 05:45:00,32.8,27.0,30.23,SSE,165,7.0,11.0,79,0.00,,,0.00,Wunderground v.1.15,2013-03-09 11:45:00,
2013-03-09 05:50:00,32.8,27.0,30.24,South,177,6.0,6.0,79,0.00,,,0.00,Wunderground v.1.15,2013-03-09 11:50:00,
2013-03-09 05:55:00,33.0,27.2,30.23,SSE,167,5.0,10.0,79,0.00,,,0.00,Wunderground v.1.15,2013-03-09 11:55:00,
2013-03-09 06:00:00,33.1,27.0,30.23,South,173,7.0,10.0,78,0.00,,,0.00,Wunderground v.1.15,2013-03-09 12:00:00,
2013-03-09 06:05:00,33.2,27.1,30.23,SSE,158,5.0,10.0,78,0.00,,,0.00,Wunderground v.1.15,2013-03-09 12:05:00,
2013-03-09 06:10:00,33.2,27.1,30.23,SSE,161,4.0,4.0,78,0.00,,,0.00,Wunderground v.1.15,2013-03-09 12:10:00,
2013-03-09 06:16:00,33.2,27.1,30.23,SSE,161,5.0,12.0,78,0.00,,,0.00,Wunderground v.1.15,2013-03-09 12:16:00,
2013-03-09 06:21:00,33.2,27.1,30.23,South,182,8.0,9.0,78,0.00,,,0.00,Wunderground v.1.15,2013-03-09 12:21:00,
2013-03-09 06:26:00,33.2,27.1,30.23,South,184,7.0,9.0,78,0.00,,,0.00,Wunderground v.1.15,2013-03-09 12:26:00,
2013-03-09 06:32:00,33.3,27.2,30.22,South,176,5.0,8.0,78,0.00,,,0.00,Wunderground v.1.15,2013-03-09 12:32:00,
2013-03-09 06:37:00,33.4,27.3,30.23,SSW,213,6.0,11.0,78,0.00,,,0.00,Wunderground v.1.15,2013-03-09 12:37:00,
2013-03-09 06:42:00,33.6,27.5,30.22,SSW,204,7.0,10.0,78,0.00,,,0.00,Wunderground v.1.15,2013-03-09 12:42:00,
2013-03-09 06:47:00,33.7,27.6,30.22,South,170,10.0,11.0,78,0.00,,,0.00,Wunderground v.1.15,2013-03-09 12:47:00,
2013-03-09 06:52:00,33.7,27.6,30.22,South,170,5.0,11.0,78,0.00,,,0.00,Wunderground v.1.15,2013-03-09 12:52:00,
2013-03-09 06:58:00,33.7,27.6,30.21,SSE,157,9.0,13.0,78,0.00,,,0.00,Wunderground v.1.15,2013-03-09 12:58:00,
2013-03-09 07:03:00,33.8,27.7,30.21,South,170,5.0,10.0,78,0.00,,,0.00,Wunderground v.1.15,2013-03-09 13:03:00,
2013-03-09 07:09:00,33.9,27.8,30.22,South,181,11.0,11.0,78,0.00,,,0.00,Wunderground v.1.15,2013-03-09 13:09:00,
2013-03-09 07:14:00,34.1,27.6,30.22,South,191,8.0,13.0,77,0.00,,,0.00,Wunderground v.1.15,2013-03-09 13:14:00,
2013-03-09 07:19:00,34.1,27.6,30.22,South,171,9.0,13.0,77,0.00,,,0.00,Wunderground v.1.15,2013-03-09 13:19:00,
2013-03-09 07:24:00,34.1,27.6,30.22,SSW,203,9.0,11.0,77,0.00,,,0.00,Wunderground v.1.15,2013-03-09 13:24:00,
2013-03-09 07:29:00,34.2,27.7,30.22,South,183,5.0,13.0,77,0.00,,,0.00,Wunderground v.1.15,2013-03-09 13:29:00,
2013-03-09 07:35:00,34.2,28.1,30.22,SSW,213,8.0,13.0,78,0.00,,,0.00,Wunderground v.1.15,2013-03-09 13:35:00,
2013-03-09 07:40:00,34.3,28.2,30.22,SW,221,9.0,12.0,78,0.00,,,0.00,Wunderground v.1.15,2013-03-09 13:40:00,
2013-03-09 07:45:00,34.3,28.2,30.22,South,178,7.0,12.0,78,0.00,,,0.00,Wunderground v.1.15,2013-03-09 13:45:00,
2013-03-09 07:50:00,34.3,28.5,30.22,South,182,10.0,12.0,79,0.00,,,0.00,Wunderground v.1.15,2013-03-09 13:50:00,
2013-03-09 07:56:00,34.3,28.8,30.22,SSW,197,9.0,12.0,80,0.00,,,0.00,Wunderground v.1.15,2013-03-09 13:56:00,
2013-03-09 08:01:00,34.2,28.7,30.21,South,188,9.0,9.0,80,0.00,,,0.00,Wunderground v.1.15,2013-03-09 14:01:00,
2013-03-09 08:06:00,34.2,29.3,30.22,SSW,196,5.0,11.0,82,0.00,,,0.00,Wunderground v.1.15,2013-03-09 14:06:00,
2013-03-09 08:11:00,34.1,29.5,30.22,SSW,210,7.0,9.0,83,0.00,,,0.01,Wunderground v.1.15,2013-03-09 14:11:00,
2013-03-09 08:16:00,34.0,29.7,30.22,SSW,192,9.0,12.0,84,0.00,,,0.01,Wunderground v.1.15,2013-03-09 14:16:00,
2013-03-09 08:21:00,33.9,29.9,30.22,South,188,5.0,11.0,85,0.07,,,0.02,Wunderground v.1.15,2013-03-09 14:21:00,
2013-03-09 08:26:00,33.9,30.2,30.21,SSE,155,5.0,11.0,86,0.15,,,0.03,Wunderground v.1.15,2013-03-09 14:26:00,
2013-03-09 08:32:00,33.8,30.3,30.21,SSW,202,5.0,6.0,87,0.11,,,0.04,Wunderground v.1.15,2013-03-09 14:32:00,
2013-03-09 08:37:00,33.8,30.6,30.20,SE,142,9.0,9.0,88,0.09,,,0.05,Wunderground v.1.15,2013-03-09 14:37:00,
2013-03-09 08:43:00,33.8,30.9,30.20,South,189,8.0,8.0,89,0.08,,,0.05,Wunderground v.1.15,2013-03-09 14:43:00,
2013-03-09 08:48:00,33.8,30.9,30.19,SSE,158,4.0,8.0,89,0.04,,,0.05,Wunderground v.1.15,2013-03-09 14:48:00,
2013-03-09 08:53:00,33.9,31.3,30.19,SSE,167,3.0,9.0,90,0.00,,,0.05,Wunderground v.1.15,2013-03-09 14:53:00,
2013-03-09 09:00:00,33.9,31.3,30.18,SE,143,4.0,5.0,90,0.00,,,0.06,Wunderground v.1.15,2013-03-09 15:00:00,
2013-03-09 09:05:00,34.0,31.4,30.18,SSW,201,4.0,10.0,90,0.00,,,0.06,Wunderground v.1.15,2013-03-09 15:05:00,
2013-03-09 09:10:00,34.2,31.6,30.19,SW,223,3.0,5.0,90,0.00,,,0.06,Wunderground v.1.15,2013-03-09 15:10:00,
2013-03-09 09:15:00,34.3,31.7,30.19,SW,217,4.0,7.0,90,0.00,,,0.06,Wunderground v.1.15,2013-03-09 15:15:00,
2013-03-09 09:20:00,34.4,31.8,30.19,South,178,4.0,5.0,90,0.00,,,0.06,Wunderground v.1.15,2013-03-09 15:20:00,
2013-03-09 09:25:00,34.5,32.1,30.17,SE,142,5.0,6.0,91,0.00,,,0.06,Wunderground v.1.15,2013-03-09 15:25:00,
2013-03-09 09:30:00,34.6,32.2,30.17,South,175,8.0,10.0,91,0.00,,,0.06,Wunderground v.1.15,2013-03-09 15:30:00,
2013-03-09 09:35:00,34.8,32.2,30.16,SE,144,6.0,10.0,90,0.00,,,0.06,Wunderground v.1.15,2013-03-09 15:35:00,
2013-03-09 09:40:00,34.9,32.5,30.16,South,171,6.0,10.0,91,0.00,,,0.06,Wunderground v.1.15,2013-03-09 15:40:00,
2013-03-09 09:45:00,35.1,32.5,30.16,SSE,161,9.0,12.0,90,0.00,,,0.06,Wunderground v.1.15,2013-03-09 15:45:00,
2013-03-09 09:50:00,35.2,32.6,30.16,SSE,163,13.0,13.0,90,0.00,,,0.06,Wunderground v.1.15,2013-03-09 15:50:00,
2013-03-09 09:55:00,35.3,32.7,30.15,SSE,156,11.0,13.0,90,0.00,,,0.06,Wunderground v.1.15,2013-03-09 15:55:00,
2013-03-09 10:00:00,35.6,32.7,30.15,South,183,6.0,12.0,89,0.00,,,0.06,Wunderground v.1.15,2013-03-09 16:00:00,
2013-03-09 10:05:00,35.7,32.8,30.14,SSE,161,6.0,12.0,89,0.00,,,0.06,Wunderground v.1.15,2013-03-09 16:05:00,
2013-03-09 10:10:00,35.9,32.7,30.13,SSE,155,9.0,9.0,88,0.00,,,0.06,Wunderground v.1.15,2013-03-09 16:10:00,
2013-03-09 10:15:00,36.2,33.0,30.14,South,186,7.0,14.0,88,0.00,,,0.06,Wunderground v.1.15,2013-03-09 16:15:00,
2013-03-09 10:20:00,36.6,33.4,30.13,SSE,166,8.0,8.0,88,0.00,,,0.06,Wunderground v.1.15,2013-03-09 16:20:00,
2013-03-09 10:25:00,36.9,33.4,30.12,South,171,5.0,12.0,87,0.00,,,0.06,Wunderground v.1.15,2013-03-09 16:25:00,
2013-03-09 10:31:00,37.2,33.4,30.12,South,173,4.0,11.0,86,0.00,,,0.06,Wunderground v.1.15,2013-03-09 16:31:00,
2013-03-09 10:36:00,37.4,33.3,30.12,South,174,12.0,15.0,85,0.00,,,0.06,Wunderground v.1.15,2013-03-09 16:36:00,
2013-03-09 10:42:00,37.5,33.4,30.11,SSW,199,12.0,17.0,85,0.00,,,0.07,Wunderground v.1.15,2013-03-09 16:42:00,
2013-03-09 10:47:00,37.5,33.4,30.11,South,191,9.0,17.0,85,0.00,,,0.07,Wunderground v.1.15,2013-03-09 16:47:00,
2013-03-09 10:53:00,37.7,33.3,30.11,South,175,7.0,17.0,84,0.00,,,0.07,Wunderground v.1.15,2013-03-09 16:53:00,
2013-03-09 10:58:00,37.8,33.4,30.12,SW,216,5.0,17.0,84,0.00,,,0.07,Wunderground v.1.15,2013-03-09 16:58:00,
2013-03-09 11:03:00,38.0,33.6,30.12,South,178,10.0,12.0,84,0.00,,,0.07,Wunderground v.1.15,2013-03-09 17:03:00,
2013-03-09 11:08:00,37.9,33.5,30.11,South,188,10.0,17.0,84,0.00,,,0.07,Wunderground v.1.15,2013-03-09 17:08:00,
2013-03-09 11:13:00,38.0,33.3,30.11,South,177,7.0,13.0,83,0.00,,,0.07,Wunderground v.1.15,2013-03-09 17:13:00,
2013-03-09 11:18:00,38.1,33.4,30.10,SSE,157,11.0,13.0,83,0.00,,,0.07,Wunderground v.1.15,2013-03-09 17:18:00,
2013-03-09 11:23:00,38.2,33.5,30.10,SSE,157,10.0,13.0,83,0.00,,,0.07,Wunderground v.1.15,2013-03-09 17:23:00,
2013-03-09 11:28:00,38.3,33.3,30.10,SSE,167,6.0,13.0,82,0.00,,,0.07,Wunderground v.1.15,2013-03-09 17:28:00,
2013-03-09 11:34:00,38.5,33.5,30.10,SSW,197,8.0,12.0,82,0.00,,,0.07,Wunderground v.1.15,2013-03-09 17:34:00,
2013-03-09 11:39:00,38.6,33.3,30.09,South,171,9.0,13.0,81,0.00,,,0.07,Wunderground v.1.15,2013-03-09 17:39:00,
2013-03-09 11:44:00,38.8,33.2,30.08,SSE,156,15.0,16.0,80,0.00,,,0.07,Wunderground v.1.15,2013-03-09 17:44:00,
2013-03-09 11:49:00,39.0,33.0,30.09,South,186,7.0,16.0,79,0.00,,,0.07,Wunderground v.1.15,2013-03-09 17:49:00,
2013-03-09 11:54:00,39.2,32.9,30.08,South,180,7.0,13.0,78,0.00,,,0.07,Wunderground v.1.15,2013-03-09 17:54:00,
2013-03-09 11:59:00,39.3,33.0,30.08,SSE,167,9.0,14.0,78,0.00,,,0.07,Wunderground v.1.15,2013-03-09 17:59:00,
2013-03-09 12:04:00,39.4,32.8,30.07,SSE,159,9.0,16.0,77,0.00,,,0.07,Wunderground v.1.15,2013-03-09 18:04:00,
2013-03-09 12:09:00,39.6,33.0,30.07,SSE,164,9.0,16.0,77,0.00,,,0.07,Wunderground v.1.15,2013-03-09 18:09:00,
2013-03-09 12:14:00,39.7,32.8,30.07,South,187,8.0,18.0,76,0.00,,,0.07,Wunderground v.1.15,2013-03-09 18:14:00,
2013-03-09 12:20:00,39.9,32.6,30.07,SSW,198,13.0,13.0,75,0.00,,,0.07,Wunderground v.1.15,2013-03-09 18:20:00,
2013-03-09 12:25:00,40.1,32.8,30.07,South,175,15.0,15.0,75,0.00,,,0.07,Wunderground v.1.15,2013-03-09 18:25:00,
2013-03-09 12:30:00,40.3,33.0,30.07,SSW,194,10.0,10.0,75,0.00,,,0.07,Wunderground v.1.15,2013-03-09 18:30:00,
2013-03-09 12:35:00,40.5,32.9,30.07,SSW,196,11.0,15.0,74,0.00,,,0.07,Wunderground v.1.15,2013-03-09 18:35:00,
2013-03-09 12:40:00,40.6,33.0,30.06,SSW,205,9.0,10.0,74,0.00,,,0.07,Wunderground v.1.15,2013-03-09 18:40:00,
2013-03-09 12:46:00,40.6,33.0,30.06,SSW,198,10.0,15.0,74,0.00,,,0.07,Wunderground v.1.15,2013-03-09 18:46:00,
2013-03-09 12:52:00,40.7,32.7,30.06,SSW,198,11.0,13.0,73,0.00,,,0.07,Wunderground v.1.15,2013-03-09 18:52:00,
2013-03-09 12:58:00,40.9,32.6,30.06,South,169,6.0,13.0,72,0.00,,,0.07,Wunderground v.1.15,2013-03-09 18:58:00,
2013-03-09 13:03:00,41.0,32.3,30.06,SW,220,12.0,15.0,71,0.00,,,0.07,Wunderground v.1.15,2013-03-09 19:03:00,
2013-03-09 13:08:00,40.9,32.2,30.05,SSW,192,10.0,16.0,71,0.00,,,0.07,Wunderground v.1.15,2013-03-09 19:08:00,
2013-03-09 13:14:00,41.0,32.3,30.05,SW,217,13.0,16.0,71,0.00,,,0.07,Wunderground v.1.15,2013-03-09 19:14:00,
2013-03-09 13:19:00,40.9,32.2,30.04,SSW,195,11.0,16.0,71,0.00,,,0.07,Wunderground v.1.15,2013-03-09 19:19:00,
2013-03-09 13:24:00,40.9,31.9,30.04,South,184,8.0,15.0,70,0.00,,,0.07,Wunderground v.1.15,2013-03-09 19:24:00,
2013-03-09 13:29:00,41.0,32.0,30.04,SSW,196,9.0,16.0,70,0.00,,,0.07,Wunderground v.1.15,2013-03-09 19:29:00,
2013-03-09 13:34:00,40.9,31.9,30.04,South,184,9.0,13.0,70,0.00,,,0.07,Wunderground v.1.15,2013-03-09 19:34:00,
2013-03-09 13:39:00,41.0,32.0,30.03,South,189,11.0,15.0,70,0.00,,,0.07,Wunderground v.1.15,2013-03-09 19:39:00,
2013-03-09 13:44:00,40.9,31.9,30.02,SSW,207,9.0,14.0,70,0.00,,,0.07,Wunderground v.1.15,2013-03-09 19:44:00,
2013-03-09 13:50:00,41.0,32.3,30.02,SSW,195,8.0,8.0,71,0.00,,,0.07,Wunderground v.1.15,2013-03-09 19:50:00,
2013-03-09 13:55:00,41.0,32.0,30.02,SSW,192,15.0,17.0,70,0.00,,,0.07,Wunderground v.1.15,2013-03-09 19:55:00,
2013-03-09 14:00:00,41.1,32.1,30.01,South,179,10.0,10.0,70,0.00,,,0.07,Wunderground v.1.15,2013-03-09 20:00:00,
2013-03-09 14:05:00,41.1,32.1,30.01,SSW,196,16.0,16.0,70,0.00,,,0.07,Wunderground v.1.15,2013-03-09 20:05:00,
2013-03-09 14:10:00,41.1,32.1,30.01,SSW,194,11.0,11.0,70,0.00,,,0.07,Wunderground v.1.15,2013-03-09 20:10:00,
2013-03-09 14:15:00,41.2,32.2,30.01,SSW,199,12.0,14.0,70,0.00,,,0.07,Wunderground v.1.15,2013-03-09 20:15:00,
2013-03-09 14:20:00,41.3,32.2,30.00,South,182,7.0,7.0,70,0.00,,,0.07,Wunderground v.1.15,2013-03-09 20:20:00,
2013-03-09 14:25:00,41.3,32.2,30.00,SSE,157,8.0,15.0,70,0.00,,,0.07,Wunderground v.1.15,2013-03-09 20:25:00,
2013-03-09 14:31:00,41.3,32.2,29.99,SSE,162,9.0,11.0,70,0.00,,,0.07,Wunderground v.1.15,2013-03-09 20:31:00,
2013-03-09 14:36:00,41.2,31.8,29.99,SSE,160,11.0,15.0,69,0.00,,,0.07,Wunderground v.1.15,2013-03-09 20:36:00,
2013-03-09 14:41:00,41.3,32.2,29.99,South,171,15.0,15.0,70,0.00,,,0.07,Wunderground v.1.15,2013-03-09 20:41:00,
2013-03-09 14:46:00,41.3,32.2,29.99,South,178,3.0,17.0,70,0.00,,,0.07,Wunderground v.1.15,2013-03-09 20:46:00,
2013-03-09 14:52:00,41.4,32.0,29.99,South,169,10.0,11.0,69,0.00,,,0.07,Wunderground v.1.15,2013-03-09 20:52:00,
2013-03-09 14:57:00,41.4,32.0,29.99,SSW,200,9.0,14.0,69,0.00,,,0.07,Wunderground v.1.15,2013-03-09 20:57:00,
2013-03-09 15:02:00,41.2,32.2,29.98,SSE,153,6.0,10.0,70,0.00,,,0.07,Wunderground v.1.15,2013-03-09 21:02:00,
2013-03-09 15:09:00,41.2,32.2,29.98,SSE,153,7.0,12.0,70,0.00,,,0.07,Wunderground v.1.15,2013-03-09 21:09:00,
2013-03-09 15:14:00,40.9,32.2,29.98,SSE,161,5.0,10.0,71,0.00,,,0.07,Wunderground v.1.15,2013-03-09 21:14:00,
2013-03-09 15:20:00,40.7,32.4,29.97,SSE,155,6.0,6.0,72,0.00,,,0.07,Wunderground v.1.15,2013-03-09 21:20:00,
2013-03-09 15:25:00,40.4,32.4,29.97,SSE,161,5.0,11.0,73,0.00,,,0.07,Wunderground v.1.15,2013-03-09 21:25:00,
2013-03-09 15:30:00,40.0,32.4,29.97,SSE,163,6.0,6.0,74,0.00,,,0.07,Wunderground v.1.15,2013-03-09 21:30:00,
2013-03-09 15:35:00,39.8,32.5,29.97,SSE,150,7.0,10.0,75,0.00,,,0.07,Wunderground v.1.15,2013-03-09 21:35:00,
2013-03-09 15:40:00,39.5,32.6,29.97,SSE,148,7.0,7.0,76,0.00,,,0.07,Wunderground v.1.15,2013-03-09 21:40:00,
2013-03-09 15:46:00,39.1,32.5,29.97,SSE,150,5.0,10.0,77,0.00,,,0.07,Wunderground v.1.15,2013-03-09 21:46:00,
2013-03-09 15:51:00,38.8,32.5,29.96,SSE,155,4.0,8.0,78,0.00,,,0.07,Wunderground v.1.15,2013-03-09 21:51:00,
2013-03-09 15:56:00,38.7,32.7,29.96,SE,142,5.0,9.0,79,0.00,,,0.07,Wunderground v.1.15,2013-03-09 21:56:00,
2013-03-09 16:02:00,38.6,32.6,29.96,SSE,156,6.0,9.0,79,0.00,,,0.07,Wunderground v.1.15,2013-03-09 22:02:00,
2013-03-09 16:07:00,38.4,32.8,29.96,SSE,153,6.0,10.0,80,0.00,,,0.07,Wunderground v.1.15,2013-03-09 22:07:00,
2013-03-09 16:12:00,38.3,32.7,29.96,SSE,156,4.0,7.0,80,0.00,,,0.07,Wunderground v.1.15,2013-03-09 22:12:00,
2013-03-09 16:17:00,38.2,32.6,29.95,SSE,150,5.0,7.0,80,0.00,,,0.07,Wunderground v.1.15,2013-03-09 22:17:00,
2013-03-09 16:22:00,38.1,32.8,29.95,SE,136,5.0,6.0,81,0.00,,,0.07,Wunderground v.1.15,2013-03-09 22:22:00,
2013-03-09 16:27:00,38.1,32.8,29.96,SSE,157,9.0,10.0,81,0.00,,,0.07,Wunderground v.1.15,2013-03-09 22:27:00,
2013-03-09 16:32:00,37.9,32.6,29.95,SSE,156,7.0,7.0,81,0.00,,,0.07,Wunderground v.1.15,2013-03-09 22:32:00,
2013-03-09 16:37:00,37.8,32.8,29.94,SSE,156,6.0,13.0,82,0.00,,,0.07,Wunderground v.1.15,2013-03-09 22:37:00,
2013-03-09 16:42:00,37.7,32.7,29.95,SE,146,3.0,7.0,82,0.00,,,0.07,Wunderground v.1.15,2013-03-09 22:42:00,
2013-03-09 16:47:00,37.6,32.9,29.95,SSE,158,5.0,7.0,83,0.00,,,0.07,Wunderground v.1.15,2013-03-09 22:47:00,
2013-03-09 16:52:00,37.5,32.8,29.94,SSE,156,3.0,5.0,83,0.00,,,0.07,Wunderground v.1.15,2013-03-09 22:52:00,
2013-03-09 16:57:00,37.4,32.7,29.94,SE,144,2.0,5.0,83,0.00,,,0.07,Wunderground v.1.15,2013-03-09 22:57:00,
2013-03-09 17:02:00,37.3,32.9,29.94,SE,126,2.0,4.0,84,0.00,,,0.07,Wunderground v.1.15,2013-03-09 23:02:00,
2013-03-09 17:08:00,37.3,32.9,29.94,SSE,153,4.0,7.0,84,0.00,,,0.07,Wunderground v.1.15,2013-03-09 23:08:00,
2013-03-09 17:13:00,37.3,32.6,29.93,SSE,153,4.0,6.0,83,0.00,,,0.07,Wunderground v.1.15,2013-03-09 23:13:00,
2013-03-09 17:18:00,37.3,32.6,29.93,SSE,153,4.0,7.0,83,0.00,,,0.07,Wunderground v.1.15,2013-03-09 23:18:00,
2013-03-09 17:24:00,37.4,32.7,29.94,SE,143,5.0,6.0,83,0.00,,,0.07,Wunderground v.1.15,2013-03-09 23:24:00,
2013-03-09 17:29:00,37.5,32.8,29.93,South,181,5.0,6.0,83,0.00,,,0.07,Wunderground v.1.15,2013-03-09 23:29:00,
2013-03-09 17:34:00,37.5,32.8,29.93,SSE,156,5.0,6.0,83,0.00,,,0.07,Wunderground v.1.15,2013-03-09 23:34:00,
2013-03-09 17:39:00,37.4,32.7,29.93,SSE,162,5.0,7.0,83,0.00,,,0.08,Wunderground v.1.15,2013-03-09 23:39:00,
2013-03-09 17:44:00,37.3,32.9,29.92,ESE,117,2.0,7.0,84,0.15,,,0.09,Wunderground v.1.15,2013-03-09 23:44:00,
2013-03-09 17:49:00,37.0,32.9,29.92,SSE,165,3.0,7.0,85,0.09,,,0.10,Wunderground v.1.15,2013-03-09 23:49:00,
2013-03-09 17:54:00,36.8,33.0,29.92,SE,130,2.0,8.0,86,0.09,,,0.10,Wunderground v.1.15,2013-03-09 23:54:00,
2013-03-09 17:59:00,36.7,33.2,29.93,SSE,164,3.0,8.0,87,0.05,,,0.10,Wunderground v.1.15,2013-03-09 23:59:00,
2013-03-09 18:04:00,36.7,33.2,29.93,South,174,3.0,4.0,87,0.05,,,0.11,Wunderground v.1.15,2013-03-10 00:04:00,
2013-03-09 18:09:00,36.9,33.4,29.93,SSE,164,2.0,5.0,87,0.05,,,0.11,Wunderground v.1.15,2013-03-10 00:09:00,
2013-03-09 18:14:00,36.9,33.4,29.93,South,173,7.0,7.0,87,0.05,,,0.11,Wunderground v.1.15,2013-03-10 00:14:00,
2013-03-09 18:19:00,36.9,33.4,29.94,SSW,196,3.0,7.0,87,0.00,,,0.11,Wunderground v.1.15,2013-03-10 00:19:00,
2013-03-09 18:24:00,37.0,33.8,29.94,SSW,205,3.0,4.0,88,0.00,,,0.11,Wunderground v.1.15,2013-03-10 00:24:00,
2013-03-09 18:29:00,37.0,33.8,29.94,SSW,205,0.0,4.0,88,0.00,,,0.11,Wunderground v.1.15,2013-03-10 00:29:00,
2013-03-09 18:34:00,37.0,33.8,29.93,SSE,149,1.0,2.0,88,0.00,,,0.11,Wunderground v.1.15,2013-03-10 00:34:00,
2013-03-09 18:40:00,36.8,33.6,29.93,SSE,149,1.0,1.0,88,0.00,,,0.11,Wunderground v.1.15,2013-03-10 00:40:00,
2013-03-09 18:45:00,36.7,33.5,29.93,East,101,2.0,4.0,88,0.00,,,0.11,Wunderground v.1.15,2013-03-10 00:45:00,
2013-03-09 18:50:00,36.6,33.7,29.93,ESE,114,4.0,4.0,89,0.00,,,0.11,Wunderground v.1.15,2013-03-10 00:50:00,
2013-03-09 18:55:00,36.6,33.7,29.93,ESE,111,0.0,4.0,89,0.00,,,0.11,Wunderground v.1.15,2013-03-10 00:55:00,
2013-03-09 19:01:00,36.5,33.6,29.92,SE,131,1.0,2.0,89,0.00,,,0.11,Wunderground v.1.15,2013-03-10 01:01:00,
2013-03-09 19:06:00,36.5,33.6,29.92,ESE,121,2.0,3.0,89,0.00,,,0.11,Wunderground v.1.15,2013-03-10 01:06:00,
2013-03-09 19:11:00,36.4,33.5,29.91,SE,146,2.0,4.0,89,0.00,,,0.11,Wunderground v.1.15,2013-03-10 01:11:00,
2013-03-09 19:16:00,36.4,33.5,29.91,ESE,111,3.0,5.0,89,0.00,,,0.11,Wunderground v.1.15,2013-03-10 01:16:00,
2013-03-09 19:21:00,36.4,33.5,29.91,SE,134,3.0,7.0,89,0.00,,,0.11,Wunderground v.1.15,2013-03-10 01:21:00,
2013-03-09 19:26:00,36.4,33.5,29.91,East,96,2.0,7.0,89,0.00,,,0.11,Wunderground v.1.15,2013-03-10 01:26:00,
2013-03-09 19:31:00,36.5,33.3,29.91,SSE,157,6.0,9.0,88,0.00,,,0.11,Wunderground v.1.15,2013-03-10 01:31:00,
2013-03-09 19:36:00,36.6,33.4,29.91,South,174,6.0,9.0,88,0.00,,,0.11,Wunderground v.1.15,2013-03-10 01:36:00,
2013-03-09 19:41:00,36.6,33.1,29.92,SSE,163,7.0,9.0,87,0.00,,,0.11,Wunderground v.1.15,2013-03-10 01:41:00,
2013-03-09 19:46:00,36.6,33.1,29.92,SSE,155,5.0,9.0,87,0.00,,,0.11,Wunderground v.1.15,2013-03-10 01:46:00,
2013-03-09 19:51:00,36.6,33.1,29.92,SSE,156,2.0,6.0,87,0.00,,,0.11,Wunderground v.1.15,2013-03-10 01:51:00,
2013-03-09 19:57:00,36.7,33.2,29.92,South,179,2.0,6.0,87,0.00,,,0.11,Wunderground v.1.15,2013-03-10 01:57:00,
2013-03-09 20:02:00,36.7,33.2,29.92,South,171,3.0,6.0,87,0.00,,,0.11,Wunderground v.1.15,2013-03-10 02:02:00,
2013-03-09 20:07:00,36.8,33.3,29.92,South,173,5.0,6.0,87,0.00,,,0.11,Wunderground v.1.15,2013-03-10 02:07:00,
2013-03-09 20:12:00,36.8,33.3,29.92,SSE,163,3.0,4.0,87,0.00,,,0.11,Wunderground v.1.15,2013-03-10 02:12:00,
2013-03-09 20:17:00,36.8,33.3,29.92,South,175,1.0,4.0,87,0.00,,,0.11,Wunderground v.1.15,2013-03-10 02:17:00,
2013-03-09 20:23:00,36.8,33.3,29.92,South,175,2.0,2.0,87,0.00,,,0.11,Wunderground v.1.15,2013-03-10 02:23:00,
2013-03-09 20:28:00,36.8,33.3,29.91,SSE,167,2.0,3.0,87,0.00,,,0.11,Wunderground v.1.15,2013-03-10 02:28:00,
2013-03-09 20:33:00,36.9,33.1,29.91,SSE,157,2.0,3.0,86,0.00,,,0.11,Wunderground v.1.15,2013-03-10 02:33:00,
2013-03-09 20:38:00,37.0,33.2,29.90,SSE,150,4.0,7.0,86,0.00,,,0.11,Wunderground v.1.15,2013-03-10 02:38:00,
2013-03-09 20:44:00,37.1,33.3,29.90,SSE,157,5.0,6.0,86,0.00,,,0.11,Wunderground v.1.15,2013-03-10 02:44:00,
2013-03-09 20:49:00,37.3,33.5,29.91,SSE,157,1.0,6.0,86,0.00,,,0.11,Wunderground v.1.15,2013-03-10 02:49:00,
2013-03-09 20:53:00,37.3,33.2,29.91,South,184,1.0,4.0,85,0.00,,,0.11,Wunderground v.1.15,2013-03-10 02:53:00,
2013-03-09 20:59:00,37.4,33.3,29.91,SSE,161,2.0,4.0,85,0.00,,,0.11,Wunderground v.1.15,2013-03-10 02:59:00,
2013-03-09 21:04:00,37.5,33.4,29.91,SSE,159,1.0,3.0,85,0.00,,,0.11,Wunderground v.1.15,2013-03-10 03:04:00,
2013-03-09 21:10:00,37.4,33.3,29.91,SSE,161,2.0,3.0,85,0.00,,,0.11,Wunderground v.1.15,2013-03-10 03:10:00,
2013-03-09 21:15:00,37.5,33.4,29.91,SSE,160,3.0,5.0,85,0.00,,,0.11,Wunderground v.1.15,2013-03-10 03:15:00,
2013-03-09 21:20:00,37.7,33.6,29.92,SW,221,2.0,2.0,85,0.00,,,0.11,Wunderground v.1.15,2013-03-10 03:20:00,
2013-03-09 21:25:00,38.0,33.6,29.91,South,182,2.0,3.0,84,0.00,,,0.11,Wunderground v.1.15,2013-03-10 03:25:00,
2013-03-09 21:31:00,38.2,33.8,29.91,South,173,4.0,4.0,84,0.00,,,0.11,Wunderground v.1.15,2013-03-10 03:31:00,
2013-03-09 21:36:00,38.2,33.8,29.90,SSE,160,4.0,5.0,84,0.00,,,0.11,Wunderground v.1.15,2013-03-10 03:36:00,
2013-03-09 21:41:00,38.1,33.7,29.90,SSE,159,0.0,3.0,84,0.00,,,0.12,Wunderground v.1.15,2013-03-10 03:41:00,
2013-03-09 21:46:00,38.0,33.9,29.90,SSE,159,0.0,3.0,85,0.00,,,0.12,Wunderground v.1.15,2013-03-10 03:46:00,
2013-03-09 21:51:00,37.8,34.0,29.90,SSE,159,0.0,0.0,86,0.09,,,0.13,Wunderground v.1.15,2013-03-10 03:51:00,
2013-03-09 21:57:00,37.5,34.0,29.90,SSE,159,0.0,1.0,87,0.06,,,0.13,Wunderground v.1.15,2013-03-10 03:57:00,
2013-03-09 22:03:00,37.3,33.8,29.90,SSE,159,1.0,1.0,87,0.05,,,0.14,Wunderground v.1.15,2013-03-10 04:03:00,
2013-03-09 22:08:00,37.0,33.8,29.90,SSE,159,1.0,2.0,88,0.07,,,0.14,Wunderground v.1.15,2013-03-10 04:08:00,
2013-03-09 22:13:00,36.8,33.6,29.90,SSE,159,1.0,2.0,88,0.07,,,0.15,Wunderground v.1.15,2013-03-10 04:13:00,
2013-03-09 22:18:00,36.7,33.8,29.90,SSE,159,0.0,2.0,89,0.06,,,0.15,Wunderground v.1.15,2013-03-10 04:18:00,
2013-03-09 22:23:00,36.7,33.8,29.90,SSE,159,0.0,1.0,89,0.04,,,0.15,Wunderground v.1.15,2013-03-10 04:23:00,
2013-03-09 22:28:00,36.7,33.8,29.90,SSE,159,0.0,1.0,89,0.00,,,0.15,Wunderground v.1.15,2013-03-10 04:28:00,
2013-03-09 22:33:00,36.6,33.9,29.90,SSE,159,0.0,0.0,90,0.00,,,0.16,Wunderground v.1.15,2013-03-10 04:33:00,
2013-03-09 22:38:00,36.5,33.8,29.90,SSE,159,0.0,0.0,90,0.00,,,0.16,Wunderground v.1.15,2013-03-10 04:38:00,
2013-03-09 22:43:00,36.5,34.1,29.90,SSE,159,0.0,1.0,91,0.05,,,0.17,Wunderground v.1.15,2013-03-10 04:43:00,
2013-03-09 22:48:00,36.5,34.1,29.90,SSE,159,0.0,1.0,91,0.05,,,0.17,Wunderground v.1.15,2013-03-10 04:48:00,
2013-03-09 22:54:00,36.2,33.8,29.90,SSE,159,0.0,0.0,91,0.05,,,0.18,Wunderground v.1.15,2013-03-10 04:54:00,
2013-03-09 22:59:00,36.0,33.6,29.89,SSE,159,1.0,2.0,91,0.05,,,0.18,Wunderground v.1.15,2013-03-10 04:59:00,
2013-03-09 23:00:00,36.0,33.6,29.89,SSE,159,0.0,0.0,91,0.05,,,0.18,Wunderground v.1.15,2013-03-10 05:00:00,
2013-03-09 23:01:00,36.0,33.6,29.89,SSE,159,0.0,0.0,91,0.05,,,0.18,Wunderground v.1.15,2013-03-10 05:01:00,
2013-03-09 23:06:00,35.9,33.8,29.88,SSE,159,0.0,0.0,92,0.05,,,0.18,Wunderground v.1.15,2013-03-10 05:06:00,
2013-03-09 23:11:00,35.9,33.8,29.88,SSE,159,1.0,1.0,92,0.00,,,0.18,Wunderground v.1.15,2013-03-10 05:11:00,
2013-03-09 23:16:00,35.9,33.8,29.87,SSE,159,0.0,2.0,92,0.00,,,0.18,Wunderground v.1.15,2013-03-10 05:16:00,
2013-03-09 23:21:00,35.9,34.1,29.87,SSE,159,0.0,1.0,93,0.00,,,0.18,Wunderground v.1.15,2013-03-10 05:21:00,
2013-03-09 23:26:00,36.0,34.2,29.87,SSE,159,1.0,2.0,93,0.00,,,0.18,Wunderground v.1.15,2013-03-10 05:26:00,
2013-03-09 23:31:00,36.0,34.2,29.86,SSE,159,0.0,0.0,93,0.00,,,0.18,Wunderground v.1.15,2013-03-10 05:31:00,
2013-03-09 23:36:00,36.0,34.2,29.86,SSE,159,0.0,1.0,93,0.00,,,0.18,Wunderground v.1.15,2013-03-10 05:36:00,
2013-03-09 23:41:00,36.1,34.3,29.86,SSE,159,0.0,0.0,93,0.00,,,0.18,Wunderground v.1.15,2013-03-10 05:41:00,
2013-03-09 23:46:00,36.2,34.4,29.85,SSE,159,0.0,0.0,93,0.00,,,0.18,Wunderground v.1.15,2013-03-10 05:46:00,
2013-03-09 23:51:00,36.2,34.4,29.86,SSE,159,0.0,0.0,93,0.00,,,0.18,Wunderground v.1.15,2013-03-10 05:51:00,
2013-03-09 23:56:00,36.2,34.4,29.85,SSE,159,0.0,0.0,93,0.00,,,0.18,Wunderground v.1.15,2013-03-10 05:56:00,